sensor_id;sensor_type;location;lat;lon;timestamp;P1;durP1;ratioP1;P2;durP2;ratioP2
24743;SDS011;12844;52.110;5.548;2022-12-10T00:01:41;12.52;;;8.70;;
24743;SDS011;12844;52.110;5.548;2022-12-10T00:04:08;10.00;;;8.43;;
24743;SDS011;12844;52.110;5.548;2022-12-10T00:06:35;10.77;;;8.45;;
24743;SDS011;12844;52.110;5.548;2022-12-10T00:09:03;11.35;;;8.15;;
24743;SDS011;12844;52.110;5.548;2022-12-10T00:11:30;10.18;;;8.38;;
24743;SDS011;12844;52.110;5.548;2022-12-10T00:13:56;10.13;;;8.48;;
24743;SDS011;12844;52.110;5.548;2022-12-10T00:16:23;11.15;;;8.27;;
24743;SDS011;12844;52.110;5.548;2022-12-10T00:18:50;10.43;;;8.20;;
24743;SDS011;12844;52.110;5.548;2022-12-10T00:21:18;10.77;;;8.52;;
24743;SDS011;12844;52.110;5.548;2022-12-10T00:23:45;11.50;;;8.80;;
24743;SDS011;12844;52.110;5.548;2022-12-10T00:26:15;11.23;;;8.80;;
24743;SDS011;12844;52.110;5.548;2022-12-10T00:28:46;10.13;;;9.02;;
24743;SDS011;12844;52.110;5.548;2022-12-10T00:31:16;10.32;;;8.63;;
24743;SDS011;12844;52.110;5.548;2022-12-10T00:33:44;9.90;;;8.30;;
24743;SDS011;12844;52.110;5.548;2022-12-10T00:36:15;10.27;;;8.63;;
24743;SDS011;12844;52.110;5.548;2022-12-10T00:38:43;10.23;;;8.55;;
24743;SDS011;12844;52.110;5.548;2022-12-10T00:41:09;10.73;;;8.77;;
24743;SDS011;12844;52.110;5.548;2022-12-10T00:43:36;10.73;;;9.05;;
24743;SDS011;12844;52.110;5.548;2022-12-10T00:46:02;10.85;;;8.73;;
24743;SDS011;12844;52.110;5.548;2022-12-10T00:48:28;13.57;;;9.38;;
24743;SDS011;12844;52.110;5.548;2022-12-10T00:50:58;9.57;;;8.23;;
24743;SDS011;12844;52.110;5.548;2022-12-10T00:53:27;10.20;;;8.35;;
24743;SDS011;12844;52.110;5.548;2022-12-10T00:55:54;9.98;;;8.30;;
24743;SDS011;12844;52.110;5.548;2022-12-10T00:58:20;10.52;;;8.50;;
24743;SDS011;12844;52.110;5.548;2022-12-10T01:00:46;10.77;;;8.68;;
24743;SDS011;12844;52.110;5.548;2022-12-10T01:03:12;11.02;;;8.93;;
24743;SDS011;12844;52.110;5.548;2022-12-10T01:05:38;10.63;;;8.48;;
24743;SDS011;12844;52.110;5.548;2022-12-10T01:08:04;10.60;;;8.70;;
24743;SDS011;12844;52.110;5.548;2022-12-10T01:10:30;11.18;;;9.25;;
24743;SDS011;12844;52.110;5.548;2022-12-10T01:12:55;11.25;;;9.57;;
24743;SDS011;12844;52.110;5.548;2022-12-10T01:15:21;12.60;;;9.70;;
24743;SDS011;12844;52.110;5.548;2022-12-10T01:17:46;11.13;;;8.77;;
24743;SDS011;12844;52.110;5.548;2022-12-10T01:20:12;10.98;;;9.35;;
24743;SDS011;12844;52.110;5.548;2022-12-10T01:22:37;10.43;;;8.32;;
24743;SDS011;12844;52.110;5.548;2022-12-10T01:25:03;13.68;;;9.18;;
24743;SDS011;12844;52.110;5.548;2022-12-10T01:27:29;10.75;;;9.30;;
24743;SDS011;12844;52.110;5.548;2022-12-10T01:29:55;11.95;;;9.43;;
24743;SDS011;12844;52.110;5.548;2022-12-10T01:32:20;12.30;;;9.43;;
24743;SDS011;12844;52.110;5.548;2022-12-10T01:34:46;12.85;;;9.23;;
24743;SDS011;12844;52.110;5.548;2022-12-10T01:37:11;12.13;;;9.50;;
24743;SDS011;12844;52.110;5.548;2022-12-10T01:39:37;11.93;;;9.45;;
24743;SDS011;12844;52.110;5.548;2022-12-10T01:42:02;12.32;;;9.75;;
24743;SDS011;12844;52.110;5.548;2022-12-10T01:46:58;13.10;;;9.80;;
24743;SDS011;12844;52.110;5.548;2022-12-10T01:51:56;12.68;;;9.88;;
24743;SDS011;12844;52.110;5.548;2022-12-10T01:54:30;12.25;;;9.60;;
24743;SDS011;12844;52.110;5.548;2022-12-10T01:56:59;11.48;;;9.38;;
24743;SDS011;12844;52.110;5.548;2022-12-10T01:59:28;12.10;;;9.57;;
24743;SDS011;12844;52.110;5.548;2022-12-10T02:02:08;12.75;;;10.20;;
24743;SDS011;12844;52.110;5.548;2022-12-10T02:05:12;13.45;;;9.90;;
24743;SDS011;12844;52.110;5.548;2022-12-10T02:10:41;12.45;;;9.98;;
24743;SDS011;12844;52.110;5.548;2022-12-10T02:13:33;13.88;;;10.63;;
24743;SDS011;12844;52.110;5.548;2022-12-10T02:16:14;12.57;;;10.25;;
24743;SDS011;12844;52.110;5.548;2022-12-10T02:18:48;13.68;;;10.15;;
24743;SDS011;12844;52.110;5.548;2022-12-10T02:21:19;13.85;;;10.98;;
24743;SDS011;12844;52.110;5.548;2022-12-10T02:23:51;14.07;;;11.40;;
24743;SDS011;12844;52.110;5.548;2022-12-10T02:29:05;12.30;;;10.00;;
24743;SDS011;12844;52.110;5.548;2022-12-10T02:31:37;13.98;;;11.32;;
24743;SDS011;12844;52.110;5.548;2022-12-10T02:34:07;12.93;;;11.13;;
24743;SDS011;12844;52.110;5.548;2022-12-10T02:36:35;15.20;;;11.73;;
24743;SDS011;12844;52.110;5.548;2022-12-10T02:39:03;14.73;;;11.80;;
24743;SDS011;12844;52.110;5.548;2022-12-10T02:41:34;14.43;;;11.13;;
24743;SDS011;12844;52.110;5.548;2022-12-10T02:44:05;13.82;;;10.95;;
24743;SDS011;12844;52.110;5.548;2022-12-10T02:46:35;14.77;;;11.13;;
24743;SDS011;12844;52.110;5.548;2022-12-10T02:49:03;14.65;;;10.98;;
24743;SDS011;12844;52.110;5.548;2022-12-10T02:51:31;13.27;;;10.50;;
24743;SDS011;12844;52.110;5.548;2022-12-10T02:54:04;14.52;;;11.25;;
24743;SDS011;12844;52.110;5.548;2022-12-10T02:56:44;15.00;;;11.43;;
24743;SDS011;12844;52.110;5.548;2022-12-10T02:59:26;14.85;;;11.30;;
24743;SDS011;12844;52.110;5.548;2022-12-10T03:02:19;15.50;;;11.45;;
24743;SDS011;12844;52.110;5.548;2022-12-10T03:07:41;15.25;;;10.93;;
24743;SDS011;12844;52.110;5.548;2022-12-10T03:12:41;14.65;;;11.18;;
24743;SDS011;12844;52.110;5.548;2022-12-10T03:15:21;14.32;;;11.05;;
24743;SDS011;12844;52.110;5.548;2022-12-10T03:17:49;15.82;;;11.80;;
24743;SDS011;12844;52.110;5.548;2022-12-10T03:20:15;14.63;;;11.48;;
24743;SDS011;12844;52.110;5.548;2022-12-10T03:22:42;16.02;;;12.02;;
24743;SDS011;12844;52.110;5.548;2022-12-10T03:25:10;14.23;;;11.30;;
24743;SDS011;12844;52.110;5.548;2022-12-10T03:27:40;15.15;;;11.65;;
24743;SDS011;12844;52.110;5.548;2022-12-10T03:30:07;15.57;;;12.10;;
24743;SDS011;12844;52.110;5.548;2022-12-10T03:32:33;15.52;;;12.25;;
24743;SDS011;12844;52.110;5.548;2022-12-10T03:34:59;15.13;;;11.50;;
24743;SDS011;12844;52.110;5.548;2022-12-10T03:37:29;14.27;;;10.80;;
24743;SDS011;12844;52.110;5.548;2022-12-10T03:39:55;15.55;;;12.13;;
24743;SDS011;12844;52.110;5.548;2022-12-10T03:42:23;16.00;;;11.90;;
24743;SDS011;12844;52.110;5.548;2022-12-10T03:44:51;15.65;;;11.85;;
24743;SDS011;12844;52.110;5.548;2022-12-10T03:47:17;16.00;;;12.23;;
24743;SDS011;12844;52.110;5.548;2022-12-10T03:49:44;15.93;;;12.70;;
24743;SDS011;12844;52.110;5.548;2022-12-10T03:52:09;16.25;;;11.65;;
24743;SDS011;12844;52.110;5.548;2022-12-10T03:54:35;15.85;;;12.30;;
24743;SDS011;12844;52.110;5.548;2022-12-10T03:57:01;16.23;;;12.00;;
24743;SDS011;12844;52.110;5.548;2022-12-10T03:59:27;14.82;;;11.57;;
24743;SDS011;12844;52.110;5.548;2022-12-10T04:01:52;16.55;;;11.98;;
24743;SDS011;12844;52.110;5.548;2022-12-10T04:04:18;16.15;;;11.90;;
24743;SDS011;12844;52.110;5.548;2022-12-10T04:06:44;16.08;;;12.63;;
24743;SDS011;12844;52.110;5.548;2022-12-10T04:09:10;16.33;;;12.20;;
24743;SDS011;12844;52.110;5.548;2022-12-10T04:11:37;16.67;;;12.32;;
24743;SDS011;12844;52.110;5.548;2022-12-10T04:14:02;15.65;;;12.05;;
24743;SDS011;12844;52.110;5.548;2022-12-10T04:16:47;15.70;;;11.85;;
24743;SDS011;12844;52.110;5.548;2022-12-10T04:19:13;16.25;;;12.18;;
24743;SDS011;12844;52.110;5.548;2022-12-10T04:21:40;16.02;;;11.80;;
24743;SDS011;12844;52.110;5.548;2022-12-10T04:24:27;16.42;;;12.10;;
24743;SDS011;12844;52.110;5.548;2022-12-10T04:27:16;17.42;;;12.55;;
24743;SDS011;12844;52.110;5.548;2022-12-10T04:29:49;16.58;;;12.38;;
24743;SDS011;12844;52.110;5.548;2022-12-10T04:32:15;15.52;;;11.65;;
24743;SDS011;12844;52.110;5.548;2022-12-10T04:34:41;14.75;;;11.55;;
24743;SDS011;12844;52.110;5.548;2022-12-10T04:37:07;16.55;;;12.27;;
24743;SDS011;12844;52.110;5.548;2022-12-10T04:39:33;16.92;;;12.40;;
24743;SDS011;12844;52.110;5.548;2022-12-10T04:41:59;16.35;;;12.23;;
24743;SDS011;12844;52.110;5.548;2022-12-10T04:44:25;16.55;;;12.25;;
24743;SDS011;12844;52.110;5.548;2022-12-10T04:46:51;15.98;;;12.07;;
24743;SDS011;12844;52.110;5.548;2022-12-10T04:49:17;15.55;;;11.88;;
24743;SDS011;12844;52.110;5.548;2022-12-10T12:07:32;15.15;;;9.95;;
24743;SDS011;12844;52.110;5.548;2022-12-10T12:10:19;14.30;;;10.15;;
24743;SDS011;12844;52.110;5.548;2022-12-10T12:12:51;15.02;;;9.73;;
24743;SDS011;12844;52.110;5.548;2022-12-10T12:20:39;13.85;;;9.52;;
24743;SDS011;12844;52.110;5.548;2022-12-10T12:25:49;14.95;;;10.10;;
24743;SDS011;12844;52.110;5.548;2022-12-10T12:28:24;16.02;;;10.05;;
24743;SDS011;12844;52.110;5.548;2022-12-10T12:31:06;13.82;;;9.82;;
24743;SDS011;12844;52.110;5.548;2022-12-10T12:33:41;13.98;;;10.13;;
24743;SDS011;12844;52.110;5.548;2022-12-10T12:36:22;14.30;;;9.35;;
24743;SDS011;12844;52.110;5.548;2022-12-10T12:38:55;15.65;;;9.93;;
24743;SDS011;12844;52.110;5.548;2022-12-10T12:41:36;13.55;;;9.18;;
24743;SDS011;12844;52.110;5.548;2022-12-10T12:49:59;11.80;;;8.63;;
24743;SDS011;12844;52.110;5.548;2022-12-10T12:52:48;13.48;;;9.05;;
24743;SDS011;12844;52.110;5.548;2022-12-10T12:58:05;12.48;;;8.90;;
24743;SDS011;12844;52.110;5.548;2022-12-10T13:00:51;11.90;;;8.57;;
24743;SDS011;12844;52.110;5.548;2022-12-10T13:03:40;11.77;;;8.65;;
24743;SDS011;12844;52.110;5.548;2022-12-10T13:06:28;11.15;;;8.20;;
24743;SDS011;12844;52.110;5.548;2022-12-10T13:11:37;10.85;;;8.02;;
24743;SDS011;12844;52.110;5.548;2022-12-10T13:14:30;11.98;;;8.32;;
24743;SDS011;12844;52.110;5.548;2022-12-10T13:17:07;12.27;;;8.25;;
24743;SDS011;12844;52.110;5.548;2022-12-10T13:19:53;11.07;;;8.30;;
24743;SDS011;12844;52.110;5.548;2022-12-10T13:22:40;11.75;;;8.13;;
24743;SDS011;12844;52.110;5.548;2022-12-10T13:25:12;12.05;;;8.63;;
24743;SDS011;12844;52.110;5.548;2022-12-10T13:27:53;11.43;;;8.57;;
24743;SDS011;12844;52.110;5.548;2022-12-10T13:33:16;11.27;;;8.15;;
24743;SDS011;12844;52.110;5.548;2022-12-10T13:35:52;11.43;;;8.13;;
24743;SDS011;12844;52.110;5.548;2022-12-10T13:38:24;11.15;;;8.30;;
24743;SDS011;12844;52.110;5.548;2022-12-10T13:41:05;11.93;;;8.68;;
24743;SDS011;12844;52.110;5.548;2022-12-10T13:43:57;12.27;;;8.80;;
24743;SDS011;12844;52.110;5.548;2022-12-10T13:49:20;11.18;;;8.15;;
24743;SDS011;12844;52.110;5.548;2022-12-10T13:57:13;10.25;;;7.88;;
24743;SDS011;12844;52.110;5.548;2022-12-10T14:00:08;11.95;;;8.77;;
24743;SDS011;12844;52.110;5.548;2022-12-10T14:02:46;10.82;;;8.32;;
24743;SDS011;12844;52.110;5.548;2022-12-10T14:05:38;11.00;;;8.20;;
24743;SDS011;12844;52.110;5.548;2022-12-10T14:08:21;11.98;;;9.02;;
24743;SDS011;12844;52.110;5.548;2022-12-10T14:10:51;11.80;;;8.60;;
24743;SDS011;12844;52.110;5.548;2022-12-10T14:13:19;12.20;;;9.05;;
24743;SDS011;12844;52.110;5.548;2022-12-10T14:15:53;11.35;;;8.50;;
24743;SDS011;12844;52.110;5.548;2022-12-10T14:18:21;11.10;;;8.40;;
24743;SDS011;12844;52.110;5.548;2022-12-10T14:20:49;11.30;;;8.27;;
24743;SDS011;12844;52.110;5.548;2022-12-10T14:23:28;10.98;;;7.93;;
24743;SDS011;12844;52.110;5.548;2022-12-10T14:25:58;10.75;;;8.00;;
24743;SDS011;12844;52.110;5.548;2022-12-10T14:28:37;10.30;;;7.63;;
24743;SDS011;12844;52.110;5.548;2022-12-10T14:31:11;9.30;;;7.28;;
24743;SDS011;12844;52.110;5.548;2022-12-10T14:33:39;9.85;;;7.45;;
24743;SDS011;12844;52.110;5.548;2022-12-10T14:36:05;10.02;;;7.72;;
24743;SDS011;12844;52.110;5.548;2022-12-10T14:38:31;9.60;;;7.20;;
24743;SDS011;12844;52.110;5.548;2022-12-10T14:40:59;9.80;;;7.43;;
24743;SDS011;12844;52.110;5.548;2022-12-10T14:43:36;10.18;;;7.72;;
24743;SDS011;12844;52.110;5.548;2022-12-10T14:46:03;9.95;;;7.65;;
24743;SDS011;12844;52.110;5.548;2022-12-10T14:48:30;10.23;;;7.70;;
24743;SDS011;12844;52.110;5.548;2022-12-10T14:51:15;10.15;;;7.57;;
24743;SDS011;12844;52.110;5.548;2022-12-10T14:53:44;10.40;;;7.50;;
24743;SDS011;12844;52.110;5.548;2022-12-10T14:56:15;10.35;;;7.63;;
24743;SDS011;12844;52.110;5.548;2022-12-10T14:58:54;10.77;;;7.45;;
24743;SDS011;12844;52.110;5.548;2022-12-10T15:01:26;10.07;;;7.50;;
24743;SDS011;12844;52.110;5.548;2022-12-10T15:03:58;9.32;;;7.18;;
24743;SDS011;12844;52.110;5.548;2022-12-10T15:06:27;10.07;;;7.22;;
24743;SDS011;12844;52.110;5.548;2022-12-10T15:08:56;9.90;;;7.55;;
24743;SDS011;12844;52.110;5.548;2022-12-10T15:11:23;9.25;;;7.32;;
24743;SDS011;12844;52.110;5.548;2022-12-10T15:13:51;9.95;;;7.40;;
24743;SDS011;12844;52.110;5.548;2022-12-10T15:16:20;9.20;;;7.22;;
24743;SDS011;12844;52.110;5.548;2022-12-10T15:18:54;9.38;;;7.20;;
24743;SDS011;12844;52.110;5.548;2022-12-10T15:21:22;10.38;;;7.90;;
24743;SDS011;12844;52.110;5.548;2022-12-10T15:23:50;9.60;;;7.47;;
24743;SDS011;12844;52.110;5.548;2022-12-10T15:26:32;10.05;;;7.75;;
24743;SDS011;12844;52.110;5.548;2022-12-10T15:29:43;10.00;;;7.28;;
24743;SDS011;12844;52.110;5.548;2022-12-10T15:31:46;9.70;;;7.13;;
24743;SDS011;12844;52.110;5.548;2022-12-10T15:34:12;10.55;;;7.88;;
24743;SDS011;12844;52.110;5.548;2022-12-10T15:36:39;10.40;;;7.78;;
24743;SDS011;12844;52.110;5.548;2022-12-10T15:39:15;10.60;;;7.75;;
24743;SDS011;12844;52.110;5.548;2022-12-10T15:41:45;10.80;;;7.50;;
24743;SDS011;12844;52.110;5.548;2022-12-10T15:49:47;9.77;;;7.28;;
24743;SDS011;12844;52.110;5.548;2022-12-10T15:52:25;9.95;;;7.32;;
24743;SDS011;12844;52.110;5.548;2022-12-10T15:54:53;9.57;;;6.90;;
24743;SDS011;12844;52.110;5.548;2022-12-10T15:57:21;10.75;;;7.70;;
24743;SDS011;12844;52.110;5.548;2022-12-10T15:59:58;10.13;;;7.60;;
24743;SDS011;12844;52.110;5.548;2022-12-10T16:02:38;10.15;;;7.38;;
24743;SDS011;12844;52.110;5.548;2022-12-10T16:05:11;11.77;;;7.90;;
24743;SDS011;12844;52.110;5.548;2022-12-10T16:07:40;11.05;;;7.93;;
24743;SDS011;12844;52.110;5.548;2022-12-10T16:10:07;11.05;;;8.15;;
24743;SDS011;12844;52.110;5.548;2022-12-10T16:12:35;11.35;;;7.38;;
24743;SDS011;12844;52.110;5.548;2022-12-10T16:15:01;10.07;;;7.30;;
24743;SDS011;12844;52.110;5.548;2022-12-10T16:17:29;10.68;;;7.60;;
24743;SDS011;12844;52.110;5.548;2022-12-10T16:19:58;10.40;;;7.72;;
24743;SDS011;12844;52.110;5.548;2022-12-10T16:22:25;8.70;;;6.53;;
24743;SDS011;12844;52.110;5.548;2022-12-10T16:24:51;10.32;;;7.40;;
24743;SDS011;12844;52.110;5.548;2022-12-10T16:27:16;11.23;;;7.70;;
24743;SDS011;12844;52.110;5.548;2022-12-10T16:29:42;11.05;;;7.57;;
24743;SDS011;12844;52.110;5.548;2022-12-10T16:32:11;9.25;;;7.07;;
24743;SDS011;12844;52.110;5.548;2022-12-10T16:34:37;9.45;;;6.78;;
24743;SDS011;12844;52.110;5.548;2022-12-10T16:37:04;10.43;;;7.55;;
24743;SDS011;12844;52.110;5.548;2022-12-10T16:39:30;9.77;;;7.28;;
24743;SDS011;12844;52.110;5.548;2022-12-10T16:41:55;9.75;;;6.32;;
24743;SDS011;12844;52.110;5.548;2022-12-10T16:44:21;10.70;;;7.70;;
24743;SDS011;12844;52.110;5.548;2022-12-10T16:46:47;9.63;;;7.03;;
24743;SDS011;12844;52.110;5.548;2022-12-10T16:49:12;9.75;;;7.05;;
24743;SDS011;12844;52.110;5.548;2022-12-10T16:51:38;9.43;;;6.95;;
24743;SDS011;12844;52.110;5.548;2022-12-10T16:54:04;11.38;;;7.32;;
24743;SDS011;12844;52.110;5.548;2022-12-10T16:56:30;10.20;;;7.70;;
24743;SDS011;12844;52.110;5.548;2022-12-10T16:58:56;9.90;;;7.00;;
24743;SDS011;12844;52.110;5.548;2022-12-10T17:01:23;11.23;;;7.80;;
24743;SDS011;12844;52.110;5.548;2022-12-10T17:03:50;11.35;;;7.85;;
24743;SDS011;12844;52.110;5.548;2022-12-10T17:06:16;9.82;;;6.85;;
24743;SDS011;12844;52.110;5.548;2022-12-10T17:08:44;10.10;;;7.28;;
24743;SDS011;12844;52.110;5.548;2022-12-10T17:11:13;10.07;;;7.40;;
24743;SDS011;12844;52.110;5.548;2022-12-10T17:14:03;10.50;;;6.90;;
24743;SDS011;12844;52.110;5.548;2022-12-10T17:16:30;9.82;;;7.10;;
24743;SDS011;12844;52.110;5.548;2022-12-10T17:18:56;10.32;;;7.20;;
24743;SDS011;12844;52.110;5.548;2022-12-10T17:21:22;11.85;;;7.80;;
24743;SDS011;12844;52.110;5.548;2022-12-10T17:23:48;10.27;;;7.07;;
24743;SDS011;12844;52.110;5.548;2022-12-10T17:26:20;10.85;;;8.07;;
24743;SDS011;12844;52.110;5.548;2022-12-10T17:28:50;12.13;;;8.27;;
24743;SDS011;12844;52.110;5.548;2022-12-10T17:31:16;12.05;;;7.97;;
24743;SDS011;12844;52.110;5.548;2022-12-10T17:33:42;10.30;;;7.93;;
24743;SDS011;12844;52.110;5.548;2022-12-10T17:36:08;12.40;;;8.38;;
24743;SDS011;12844;52.110;5.548;2022-12-10T17:38:34;10.80;;;7.65;;
24743;SDS011;12844;52.110;5.548;2022-12-10T17:41:00;11.15;;;7.93;;
24743;SDS011;12844;52.110;5.548;2022-12-10T17:43:25;11.07;;;7.50;;
24743;SDS011;12844;52.110;5.548;2022-12-10T17:45:51;12.18;;;8.00;;
24743;SDS011;12844;52.110;5.548;2022-12-10T17:48:18;11.35;;;7.50;;
24743;SDS011;12844;52.110;5.548;2022-12-10T17:50:44;11.13;;;7.88;;
24743;SDS011;12844;52.110;5.548;2022-12-10T17:53:11;11.85;;;8.18;;
24743;SDS011;12844;52.110;5.548;2022-12-10T17:55:43;12.55;;;8.05;;
24743;SDS011;12844;52.110;5.548;2022-12-10T17:58:20;11.98;;;8.23;;
24743;SDS011;12844;52.110;5.548;2022-12-10T18:00:47;12.30;;;8.50;;
24743;SDS011;12844;52.110;5.548;2022-12-10T18:03:14;10.15;;;7.55;;
24743;SDS011;12844;52.110;5.548;2022-12-10T18:05:40;12.75;;;8.43;;
24743;SDS011;12844;52.110;5.548;2022-12-10T18:08:05;12.55;;;8.35;;
24743;SDS011;12844;52.110;5.548;2022-12-10T18:10:32;12.27;;;8.02;;
24743;SDS011;12844;52.110;5.548;2022-12-10T18:12:58;12.25;;;8.52;;
24743;SDS011;12844;52.110;5.548;2022-12-10T18:15:25;12.00;;;8.15;;
24743;SDS011;12844;52.110;5.548;2022-12-10T18:17:52;10.82;;;7.70;;
24743;SDS011;12844;52.110;5.548;2022-12-10T18:20:22;12.02;;;8.45;;
24743;SDS011;12844;52.110;5.548;2022-12-10T18:22:50;11.77;;;8.02;;
24743;SDS011;12844;52.110;5.548;2022-12-10T18:25:17;11.98;;;8.18;;
24743;SDS011;12844;52.110;5.548;2022-12-10T18:27:44;12.23;;;8.25;;
24743;SDS011;12844;52.110;5.548;2022-12-10T18:30:15;11.73;;;7.90;;
24743;SDS011;12844;52.110;5.548;2022-12-10T18:32:46;11.82;;;8.05;;
24743;SDS011;12844;52.110;5.548;2022-12-10T18:35:11;11.75;;;8.15;;
24743;SDS011;12844;52.110;5.548;2022-12-10T18:37:37;10.75;;;7.75;;
24743;SDS011;12844;52.110;5.548;2022-12-10T18:40:04;12.50;;;8.40;;
24743;SDS011;12844;52.110;5.548;2022-12-10T18:42:31;10.93;;;7.70;;
24743;SDS011;12844;52.110;5.548;2022-12-10T18:44:57;11.65;;;8.07;;
24743;SDS011;12844;52.110;5.548;2022-12-10T18:47:23;13.20;;;8.27;;
24743;SDS011;12844;52.110;5.548;2022-12-10T18:49:48;11.88;;;8.27;;
24743;SDS011;12844;52.110;5.548;2022-12-10T18:52:14;11.82;;;8.05;;
24743;SDS011;12844;52.110;5.548;2022-12-10T18:54:41;12.77;;;8.20;;
24743;SDS011;12844;52.110;5.548;2022-12-10T18:57:06;11.82;;;7.63;;
24743;SDS011;12844;52.110;5.548;2022-12-10T18:59:33;12.80;;;7.80;;
24743;SDS011;12844;52.110;5.548;2022-12-10T19:01:59;11.80;;;8.30;;
24743;SDS011;12844;52.110;5.548;2022-12-10T19:04:24;11.55;;;7.90;;
24743;SDS011;12844;52.110;5.548;2022-12-10T19:06:50;11.85;;;8.10;;
24743;SDS011;12844;52.110;5.548;2022-12-10T19:09:16;11.60;;;7.90;;
24743;SDS011;12844;52.110;5.548;2022-12-10T19:11:42;11.70;;;7.75;;
24743;SDS011;12844;52.110;5.548;2022-12-10T19:14:11;13.07;;;8.60;;
24743;SDS011;12844;52.110;5.548;2022-12-10T19:16:37;12.50;;;8.10;;
24743;SDS011;12844;52.110;5.548;2022-12-10T19:19:03;12.13;;;8.07;;
24743;SDS011;12844;52.110;5.548;2022-12-10T19:21:30;10.48;;;7.50;;
24743;SDS011;12844;52.110;5.548;2022-12-10T19:23:56;12.23;;;7.78;;
24743;SDS011;12844;52.110;5.548;2022-12-10T19:26:29;10.98;;;7.78;;
24743;SDS011;12844;52.110;5.548;2022-12-10T19:28:57;11.50;;;8.27;;
24743;SDS011;12844;52.110;5.548;2022-12-10T19:31:23;12.77;;;8.65;;
24743;SDS011;12844;52.110;5.548;2022-12-10T19:33:49;11.35;;;7.60;;
24743;SDS011;12844;52.110;5.548;2022-12-10T19:36:22;12.18;;;8.48;;
24743;SDS011;12844;52.110;5.548;2022-12-10T19:38:50;12.85;;;8.40;;
24743;SDS011;12844;52.110;5.548;2022-12-10T19:41:17;12.60;;;8.55;;
24743;SDS011;12844;52.110;5.548;2022-12-10T19:43:42;12.60;;;8.98;;
24743;SDS011;12844;52.110;5.548;2022-12-10T19:48:41;12.32;;;7.90;;
24743;SDS011;12844;52.110;5.548;2022-12-10T19:51:08;12.05;;;8.13;;
24743;SDS011;12844;52.110;5.548;2022-12-10T19:53:34;11.68;;;8.10;;
24743;SDS011;12844;52.110;5.548;2022-12-10T19:56:00;12.25;;;8.07;;
24743;SDS011;12844;52.110;5.548;2022-12-10T19:58:26;13.02;;;8.43;;
24743;SDS011;12844;52.110;5.548;2022-12-10T20:00:52;12.60;;;8.23;;
24743;SDS011;12844;52.110;5.548;2022-12-10T20:03:18;11.63;;;8.13;;
24743;SDS011;12844;52.110;5.548;2022-12-10T20:05:43;13.98;;;9.43;;
24743;SDS011;12844;52.110;5.548;2022-12-10T20:08:09;12.65;;;8.63;;
24743;SDS011;12844;52.110;5.548;2022-12-10T20:10:36;13.40;;;9.00;;
24743;SDS011;12844;52.110;5.548;2022-12-10T20:13:02;13.43;;;8.77;;
24743;SDS011;12844;52.110;5.548;2022-12-10T20:15:27;15.85;;;9.35;;
24743;SDS011;12844;52.110;5.548;2022-12-10T20:17:53;14.25;;;8.88;;
24743;SDS011;12844;52.110;5.548;2022-12-10T20:20:23;12.95;;;9.27;;
24743;SDS011;12844;52.110;5.548;2022-12-10T20:22:53;12.82;;;8.13;;
24743;SDS011;12844;52.110;5.548;2022-12-10T20:25:19;12.02;;;8.25;;
24743;SDS011;12844;52.110;5.548;2022-12-10T20:27:47;12.13;;;8.02;;
24743;SDS011;12844;52.110;5.548;2022-12-10T20:30:14;14.13;;;8.30;;
24743;SDS011;12844;52.110;5.548;2022-12-10T20:32:43;16.27;;;8.57;;
24743;SDS011;12844;52.110;5.548;2022-12-10T20:35:09;13.77;;;8.43;;
24743;SDS011;12844;52.110;5.548;2022-12-10T20:37:37;13.23;;;8.52;;
24743;SDS011;12844;52.110;5.548;2022-12-10T20:40:03;12.50;;;7.72;;
24743;SDS011;12844;52.110;5.548;2022-12-10T20:42:29;11.32;;;7.82;;
24743;SDS011;12844;52.110;5.548;2022-12-10T20:44:54;15.93;;;8.55;;
24743;SDS011;12844;52.110;5.548;2022-12-10T20:47:20;13.27;;;8.45;;
24743;SDS011;12844;52.110;5.548;2022-12-10T20:49:45;13.27;;;7.97;;
24743;SDS011;12844;52.110;5.548;2022-12-10T20:52:11;15.35;;;8.32;;
24743;SDS011;12844;52.110;5.548;2022-12-10T20:54:36;12.95;;;8.27;;
24743;SDS011;12844;52.110;5.548;2022-12-10T20:57:02;15.15;;;8.25;;
24743;SDS011;12844;52.110;5.548;2022-12-10T20:59:27;13.75;;;8.15;;
24743;SDS011;12844;52.110;5.548;2022-12-10T21:01:58;14.00;;;8.32;;
24743;SDS011;12844;52.110;5.548;2022-12-10T21:04:24;13.63;;;8.40;;
24743;SDS011;12844;52.110;5.548;2022-12-10T21:06:50;12.70;;;8.40;;
24743;SDS011;12844;52.110;5.548;2022-12-10T21:09:16;16.83;;;8.50;;
24743;SDS011;12844;52.110;5.548;2022-12-10T21:11:41;11.77;;;7.82;;
24743;SDS011;12844;52.110;5.548;2022-12-10T21:14:07;13.40;;;8.77;;
24743;SDS011;12844;52.110;5.548;2022-12-10T21:16:32;13.38;;;8.40;;
24743;SDS011;12844;52.110;5.548;2022-12-10T21:18:58;12.75;;;8.82;;
24743;SDS011;12844;52.110;5.548;2022-12-10T21:21:24;12.77;;;8.32;;
24743;SDS011;12844;52.110;5.548;2022-12-10T21:23:51;13.85;;;8.25;;
24743;SDS011;12844;52.110;5.548;2022-12-10T21:26:18;14.23;;;8.60;;
24743;SDS011;12844;52.110;5.548;2022-12-10T21:28:44;13.20;;;8.48;;
24743;SDS011;12844;52.110;5.548;2022-12-10T21:31:20;13.70;;;8.68;;
24743;SDS011;12844;52.110;5.548;2022-12-10T21:33:47;13.55;;;8.43;;
24743;SDS011;12844;52.110;5.548;2022-12-10T21:36:14;14.70;;;8.25;;
24743;SDS011;12844;52.110;5.548;2022-12-10T21:38:41;13.13;;;8.52;;
24743;SDS011;12844;52.110;5.548;2022-12-10T21:41:08;14.43;;;8.45;;
24743;SDS011;12844;52.110;5.548;2022-12-10T21:43:53;13.07;;;8.95;;
24743;SDS011;12844;52.110;5.548;2022-12-10T21:46:20;13.07;;;8.48;;
24743;SDS011;12844;52.110;5.548;2022-12-10T21:48:46;14.45;;;8.60;;
24743;SDS011;12844;52.110;5.548;2022-12-10T21:51:11;14.50;;;8.70;;
24743;SDS011;12844;52.110;5.548;2022-12-10T21:53:37;13.98;;;8.93;;
24743;SDS011;12844;52.110;5.548;2022-12-10T21:56:06;12.65;;;8.82;;
24743;SDS011;12844;52.110;5.548;2022-12-10T21:58:34;13.82;;;8.93;;
24743;SDS011;12844;52.110;5.548;2022-12-10T22:01:00;17.92;;;9.18;;
24743;SDS011;12844;52.110;5.548;2022-12-10T22:03:25;15.30;;;9.05;;
24743;SDS011;12844;52.110;5.548;2022-12-10T22:05:51;14.10;;;8.65;;
24743;SDS011;12844;52.110;5.548;2022-12-10T22:08:17;13.98;;;9.18;;
24743;SDS011;12844;52.110;5.548;2022-12-10T22:10:43;14.57;;;9.27;;
24743;SDS011;12844;52.110;5.548;2022-12-10T22:13:08;14.02;;;9.40;;
24743;SDS011;12844;52.110;5.548;2022-12-10T22:15:39;14.32;;;9.25;;
24743;SDS011;12844;52.110;5.548;2022-12-10T22:18:05;16.67;;;9.07;;
24743;SDS011;12844;52.110;5.548;2022-12-10T22:20:35;14.38;;;8.77;;
24743;SDS011;12844;52.110;5.548;2022-12-10T22:23:03;14.27;;;8.95;;
24743;SDS011;12844;52.110;5.548;2022-12-10T22:25:29;15.48;;;9.27;;
24743;SDS011;12844;52.110;5.548;2022-12-10T22:27:54;14.13;;;9.18;;
24743;SDS011;12844;52.110;5.548;2022-12-10T22:30:20;14.27;;;9.82;;
24743;SDS011;12844;52.110;5.548;2022-12-10T22:32:45;16.13;;;9.38;;
24743;SDS011;12844;52.110;5.548;2022-12-10T22:35:11;14.48;;;9.68;;
24743;SDS011;12844;52.110;5.548;2022-12-10T22:37:38;15.25;;;8.75;;
24743;SDS011;12844;52.110;5.548;2022-12-10T22:40:04;15.88;;;9.40;;
24743;SDS011;12844;52.110;5.548;2022-12-10T22:42:31;14.38;;;9.35;;
24743;SDS011;12844;52.110;5.548;2022-12-10T22:44:58;15.77;;;9.82;;
24743;SDS011;12844;52.110;5.548;2022-12-10T22:47:25;14.93;;;9.48;;
24743;SDS011;12844;52.110;5.548;2022-12-10T22:49:52;15.40;;;10.00;;
24743;SDS011;12844;52.110;5.548;2022-12-10T22:52:18;13.95;;;9.18;;
24743;SDS011;12844;52.110;5.548;2022-12-10T22:54:43;16.45;;;10.27;;
24743;SDS011;12844;52.110;5.548;2022-12-10T22:57:09;14.82;;;9.13;;